This is the latest recevied weather packets stored in our database for station/object E22ZMG-1. If no packets are shown the sender has not sent any weather packets the latest 10 day(s).
| Time | Temp. | Humidity | Pressure | Rain* | Wind** | Luminosity | Snow |
|---|---|---|---|---|---|---|---|
| 1777967627 | 38.89° C | 39% | 973 hPa | - | - | 0 W/m² | - |
| 1777966999 | 38.89° C | 39% | 973 hPa | - | - | 0 W/m² | - |
| 1777966375 | 39.44° C | 38% | 973 hPa | - | - | 0 W/m² | - |
| 1777965749 | 40° C | 37% | 974 hPa | - | - | 0 W/m² | - |
| 1777965125 | 40° C | 37% | 974 hPa | - | - | 0 W/m² | - |
| 1777964500 | 40.56° C | 37% | 974 hPa | - | - | 0 W/m² | - |
| 1777963876 | 38.33° C | 40% | 974 hPa | - | - | 0 W/m² | - |
| 1777963251 | 39.44° C | 38% | 974 hPa | - | - | 0 W/m² | - |
| 1777962626 | 40° C | 38% | 975 hPa | - | - | 0 W/m² | - |
| 1777962001 | 39.44° C | 38% | 975 hPa | - | - | 0 W/m² | - |
| 1777961377 | 39.44° C | 38% | 975 hPa | - | - | 0 W/m² | - |
| 1777960752 | 38.33° C | 41% | 976 hPa | - | - | 0 W/m² | - |
| 1777960127 | 38.89° C | 40% | 976 hPa | - | - | 0 W/m² | - |
| 1777959501 | 37.78° C | 42% | 976 hPa | - | - | 0 W/m² | - |
| 1777958876 | 37.22° C | 44% | 976 hPa | - | - | 0 W/m² | - |
| 1777958252 | 36.67° C | 44% | 977 hPa | - | - | 0 W/m² | - |
| 1777957625 | 36.11° C | 46% | 977 hPa | - | - | 0 W/m² | - |
| 1777957000 | 37.22° C | 44% | 977 hPa | - | - | 0 W/m² | - |
| 1777956375 | 36.67° C | 45% | 977 hPa | - | - | 0 W/m² | - |
| 1777955749 | 37.22° C | 44% | 977 hPa | - | - | 0 W/m² | - |
| 1777955124 | 36.11° C | 46% | 977 hPa | - | - | 0 W/m² | - |
| 1777954498 | 36.67° C | 45% | 978 hPa | - | - | 0 W/m² | - |
| 1777953873 | 36.67° C | 45% | 978 hPa | - | - | 0 W/m² | - |
| 1777953247 | 36.11° C | 46% | 978 hPa | - | - | 0 W/m² | - |
| 1777952623 | 36.11° C | 46% | 978 hPa | - | - | 0 W/m² | - |
* Rain since midnight (hover to see other rain measurements)
** Current wind speed in m/s (hover to see current wind gust speed)